Time;durP1;ratioP1;P1;durP2;ratioP2;P2;SDS_P1;SDS_P2;PMS_P1;PMS_P2;Temp;Humidity;BMP_temperature;BMP_pressure;BME280_temperature;BME280_humidity;BME280_pressure;Samples;Min_cycle;Max_cycle;Signal;HPM_P1;HPM_P2
2022/01/29 00:00:44;;;;;;;7.60;4.40;;;;;;;2.75;70.85;100365.72;126256;1098;104776;-78
2022/01/29 00:03:20;;;;;;;10.40;4.43;;;;;;;2.73;71.38;100375.09;126342;1099;104153;-79
2022/01/29 00:05:53;;;;;;;10.33;4.50;;;;;;;2.71;71.61;100366.30;126268;1099;104213;-78
2022/01/29 00:08:25;;;;;;;9.37;4.53;;;;;;;2.67;71.36;100379.88;126332;1099;104149;-78
2022/01/29 00:11:02;;;;;;;6.70;4.37;;;;;;;2.65;71.50;100389.23;126386;1099;104175;-79
2022/01/29 00:13:34;;;;;;;8.17;4.27;;;;;;;2.62;71.54;100389.06;126297;1099;104146;-78
2022/01/29 00:16:07;;;;;;;7.93;4.37;;;;;;;2.60;71.25;100396.73;126298;1099;105476;-79
2022/01/29 00:18:38;;;;;;;11.97;4.57;;;;;;;2.59;71.67;100414.77;126379;1099;104150;-78
2022/01/29 00:21:09;;;;;;;8.13;4.00;;;;;;;2.58;71.19;100412.95;126333;1099;104155;-78
2022/01/29 00:23:41;;;;;;;9.47;4.57;;;;;;;2.58;71.28;100405.19;126384;1099;104682;-78
2022/01/29 00:26:12;;;;;;;8.60;4.43;;;;;;;2.55;71.59;100410.16;126284;1099;104255;-78
2022/01/29 00:28:43;;;;;;;7.77;4.50;;;;;;;2.52;70.85;100421.20;126325;1099;104156;-78
2022/01/29 00:31:15;;;;;;;8.83;4.43;;;;;;;2.48;71.62;100421.82;126312;1099;104611;-78
2022/01/29 00:33:46;;;;;;;8.43;4.43;;;;;;;2.43;70.96;100420.59;126358;1099;104201;-79
2022/01/29 00:36:18;;;;;;;11.47;4.37;;;;;;;2.38;71.23;100415.10;126273;1099;104187;-78
2022/01/29 00:38:50;;;;;;;10.33;4.50;;;;;;;2.37;71.27;100427.95;126230;1099;104158;-79
2022/01/29 00:41:22;;;;;;;9.63;4.90;;;;;;;2.32;71.09;100425.05;126287;1099;104259;-79
2022/01/29 00:43:53;;;;;;;9.20;4.43;;;;;;;2.31;70.46;100428.45;126338;1099;104255;-79
2022/01/29 00:46:25;;;;;;;11.60;4.77;;;;;;;2.28;71.30;100434.31;126254;1099;104269;-79
2022/01/29 00:48:56;;;;;;;9.30;4.40;;;;;;;2.30;71.97;100434.41;126268;1098;104239;-79
2022/01/29 00:51:28;;;;;;;9.23;4.27;;;;;;;2.30;71.28;100431.83;126238;1099;104437;-79
2022/01/29 00:53:59;;;;;;;12.33;4.87;;;;;;;2.30;71.19;100437.89;126199;1099;104166;-80
2022/01/29 00:56:31;;;;;;;7.60;4.40;;;;;;;2.29;71.60;100441.30;126163;1099;104150;-77
2022/01/29 00:59:02;;;;;;;9.10;4.57;;;;;;;2.30;71.31;100447.36;126181;1098;104257;-77
2022/01/29 01:01:34;;;;;;;7.60;3.90;;;;;;;2.34;71.13;100447.67;126202;1099;105369;-78
2022/01/29 01:04:06;;;;;;;8.67;4.03;;;;;;;2.36;71.08;100445.19;126199;1099;104134;-77
2022/01/29 01:06:37;;;;;;;9.23;4.23;;;;;;;2.39;71.75;100449.69;126264;1099;104146;-78
2022/01/29 01:09:08;;;;;;;7.90;4.20;;;;;;;2.41;70.83;100453.27;126321;1099;104174;-79
2022/01/29 01:11:40;;;;;;;9.17;4.53;;;;;;;2.42;71.54;100450.78;126302;1099;104198;-80
2022/01/29 01:14:11;;;;;;;7.97;4.40;;;;;;;2.46;71.15;100454.47;126331;1099;104153;-78
2022/01/29 01:16:42;;;;;;;8.80;4.35;;;;;;;2.48;71.09;100446.02;126264;1099;104337;-78
2022/01/29 01:19:14;;;;;;;8.90;4.10;;;;;;;2.51;71.29;100450.52;126365;1099;104233;-78
2022/01/29 01:21:45;;;;;;;6.90;4.00;;;;;;;2.54;71.30;100449.80;126346;1099;104159;-78
2022/01/29 01:24:16;;;;;;;8.50;4.07;;;;;;;2.56;70.59;100443.94;126321;1098;104162;-79
2022/01/29 01:26:48;;;;;;;8.00;4.07;;;;;;;2.59;70.68;100453.63;126274;1099;104166;-78
2022/01/29 01:29:20;;;;;;;7.00;4.17;;;;;;;2.60;71.01;100451.13;126316;1099;104277;-78
2022/01/29 01:31:51;;;;;;;7.73;3.70;;;;;;;2.62;70.37;100464.19;126360;1099;104121;-79
2022/01/29 01:34:24;;;;;;;8.13;3.80;;;;;;;2.63;70.62;100461.70;126284;1099;104175;-79
2022/01/29 01:37:00;;;;;;;8.00;3.63;;;;;;;2.66;70.23;100461.88;126326;1099;105749;-78
2022/01/29 01:39:35;;;;;;;8.23;3.90;;;;;;;2.67;70.40;100470.56;126382;1099;104307;-78
2022/01/29 01:42:08;;;;;;;5.93;3.20;;;;;;;2.68;70.26;100469.75;126304;1099;104146;-78
2022/01/29 01:44:43;;;;;;;8.20;4.00;;;;;;;2.70;70.51;100475.95;126331;1099;104256;-78
2022/01/29 01:47:16;;;;;;;8.77;3.90;;;;;;;2.71;70.55;100480.31;126292;1099;104143;-78
2022/01/29 01:49:48;;;;;;;8.67;3.67;;;;;;;2.71;69.93;100482.91;126319;1099;104149;-78
2022/01/29 01:52:25;;;;;;;10.73;3.50;;;;;;;2.75;69.29;100486.62;126308;1099;104258;-79
2022/01/29 01:55:03;;;;;;;6.70;3.50;;;;;;;2.76;69.51;100485.80;126340;1098;104638;-79
2022/01/29 01:57:43;;;;;;;7.50;3.50;;;;;;;2.76;69.87;100484.14;126252;1099;104281;-78
2022/01/29 02:00:16;;;;;;;8.00;3.20;;;;;;;2.76;69.46;100489.31;126307;1099;104207;-78
2022/01/29 02:02:48;;;;;;;6.43;3.37;;;;;;;2.77;70.22;100479.84;126371;1099;104134;-77
2022/01/29 02:05:20;;;;;;;6.17;3.30;;;;;;;2.78;69.60;100481.64;126350;1099;104188;-79
2022/01/29 02:07:52;;;;;;;8.50;3.30;;;;;;;2.78;69.13;100479.05;126258;1099;104290;-78
2022/01/29 02:10:26;;;;;;;7.37;3.57;;;;;;;2.78;69.12;100482.53;126327;1099;104149;-78
2022/01/29 02:13:02;;;;;;;7.28;3.50;;;;;;;2.78;69.99;100490.31;126333;1099;104257;-78
2022/01/29 02:15:34;;;;;;;6.63;3.33;;;;;;;2.78;69.36;100489.42;126345;1099;104143;-78
2022/01/29 02:18:12;;;;;;;8.80;3.60;;;;;;;2.79;68.83;100493.78;126268;1097;104201;-79
2022/01/29 02:20:45;;;;;;;7.03;3.23;;;;;;;2.80;69.66;100500.77;126305;1099;104602;-79
2022/01/29 02:23:17;;;;;;;6.40;3.30;;;;;;;2.80;68.79;100491.30;126394;1099;104220;-79
2022/01/29 02:25:50;;;;;;;7.27;3.47;;;;;;;2.80;68.50;100488.70;126265;1099;104758;-79
2022/01/29 02:28:23;;;;;;;7.78;3.50;;;;;;;2.83;69.16;100478.54;126270;1099;104182;-79
2022/01/29 02:31:00;;;;;;;10.45;3.42;;;;;;;2.82;69.08;100494.91;126276;1099;104611;-79
2022/01/29 02:33:38;;;;;;;9.53;3.57;;;;;;;2.81;68.85;100493.10;126263;1099;104197;-78
2022/01/29 02:36:11;;;;;;;5.33;2.90;;;;;;;2.82;68.20;100494.91;126342;1099;104143;-78
2022/01/29 02:38:43;;;;;;;7.10;3.60;;;;;;;2.84;68.47;100505.37;126247;1099;104176;-79
2022/01/29 02:41:15;;;;;;;6.30;3.37;;;;;;;2.84;68.91;100513.16;126297;1099;104229;-79
2022/01/29 02:43:48;;;;;;;8.90;3.80;;;;;;;2.84;68.74;100507.97;126347;1099;104147;-78
2022/01/29 02:46:30;;;;;;;7.13;3.50;;;;;;;2.85;68.27;100514.92;126274;1099;104162;-79
2022/01/29 02:49:01;;;;;;;9.23;3.80;;;;;;;2.83;68.64;100509.64;126280;1099;104214;-78
2022/01/29 02:51:32;;;;;;;9.03;3.47;;;;;;;2.81;69.37;100500.88;126300;1099;104217;-77
2022/01/29 02:54:04;;;;;;;9.07;3.90;;;;;;;2.80;69.12;100521.51;126337;1099;104158;-79
2022/01/29 02:56:35;;;;;;;8.37;3.87;;;;;;;2.78;69.19;100517.92;126343;1099;104325;-79
2022/01/29 02:59:07;;;;;;;6.63;3.40;;;;;;;2.78;69.12;100517.92;126287;1098;104172;-78
2022/01/29 03:01:38;;;;;;;10.67;4.00;;;;;;;2.77;68.87;100518.71;126361;1099;104274;-78
2022/01/29 03:04:10;;;;;;;7.77;4.13;;;;;;;2.78;69.52;100528.29;126319;1099;104163;-78
2022/01/29 03:06:42;;;;;;;8.67;4.10;;;;;;;2.76;69.12;100523.00;126345;1099;104185;-79
2022/01/29 03:09:13;;;;;;;7.83;3.83;;;;;;;2.75;68.85;100539.34;126295;1099;104293;-79
2022/01/29 03:11:44;;;;;;;10.40;4.70;;;;;;;2.76;69.21;100527.27;126272;1099;104159;-78
2022/01/29 03:14:16;;;;;;;11.30;4.27;;;;;;;2.74;69.01;100521.98;126343;1099;104159;-79
2022/01/29 03:16:48;;;;;;;9.97;4.37;;;;;;;2.74;69.87;100534.05;126331;1099;104309;-79
2022/01/29 03:19:19;;;;;;;7.83;4.00;;;;;;;2.73;69.50;100529.66;126332;1096;104146;-78
2022/01/29 03:21:50;;;;;;;9.93;4.70;;;;;;;2.70;69.75;100538.14;126307;1098;104258;-78
2022/01/29 03:24:22;;;;;;;9.30;4.70;;;;;;;2.70;69.87;100548.50;126312;1099;104297;-78
2022/01/29 03:26:55;;;;;;;7.43;3.90;;;;;;;2.65;70.68;100570.59;126332;1099;104140;-78
2022/01/29 03:29:26;;;;;;;6.93;4.13;;;;;;;2.59;69.94;100552.06;126276;1099;104181;-79
2022/01/29 03:31:57;;;;;;;11.77;4.67;;;;;;;2.55;70.33;100556.11;126383;1099;104634;-79
2022/01/29 03:34:29;;;;;;;11.53;5.30;;;;;;;2.52;70.45;100545.54;126409;1099;104217;-78
2022/01/29 03:37:01;;;;;;;11.03;4.93;;;;;;;2.50;70.68;100554.91;126229;1099;104246;-79
2022/01/29 03:39:34;;;;;;;13.93;5.10;;;;;;;2.48;70.27;100554.80;126114;1099;104146;-78
2022/01/29 03:42:09;;;;;;;8.70;4.35;;;;;;;2.47;70.95;100560.77;126344;1099;104248;-78
2022/01/29 03:44:40;;;;;;;12.40;4.77;;;;;;;2.48;70.28;100559.09;126356;1099;104179;-77
2022/01/29 03:47:12;;;;;;;10.77;4.80;;;;;;;2.48;70.63;100570.34;126307;1098;104251;-79
2022/01/29 03:49:43;;;;;;;11.20;4.83;;;;;;;2.48;71.01;100556.51;126270;1099;105518;-79
2022/01/29 03:52:14;;;;;;;11.53;4.90;;;;;;;2.50;71.02;100554.91;126291;1099;104223;-78
2022/01/29 03:54:46;;;;;;;11.13;5.80;;;;;;;2.49;71.30;100561.80;126119;1099;104281;-79
2022/01/29 03:57:17;;;;;;;11.57;5.33;;;;;;;2.50;70.55;100573.05;126105;1099;104181;-76
2022/01/29 03:59:49;;;;;;;8.07;4.20;;;;;;;2.50;70.78;100568.75;126060;1099;104153;-78
2022/01/29 04:02:20;;;;;;;7.87;4.17;;;;;;;2.51;70.58;100567.08;126125;1099;104171;-79
2022/01/29 04:04:51;;;;;;;8.73;4.20;;;;;;;2.53;70.41;100569.78;126123;1098;104230;-79
2022/01/29 04:07:23;;;;;;;6.67;3.90;;;;;;;2.55;70.99;100573.36;126111;1099;104152;-79
2022/01/29 04:09:54;;;;;;;6.80;3.83;;;;;;;2.55;70.69;100583.72;126171;1099;104178;-78
2022/01/29 04:12:28;;;;;;;7.73;4.33;;;;;;;2.58;70.73;100586.52;126230;1099;104156;-79
2022/01/29 04:14:59;;;;;;;7.95;4.17;;;;;;;2.57;70.46;100584.72;126270;1099;104628;-79
2022/01/29 04:17:30;;;;;;;7.97;4.17;;;;;;;2.59;70.46;100594.41;126323;1098;104194;-78
2022/01/29 04:20:02;;;;;;;8.80;4.27;;;;;;;2.59;70.37;100585.74;126348;1099;104168;-78
2022/01/29 04:22:35;;;;;;;7.00;3.77;;;;;;;2.59;70.15;100599.59;126304;1098;104165;-78
2022/01/29 04:25:09;;;;;;;9.90;4.57;;;;;;;2.59;70.25;100603.88;126341;1099;104156;-78
2022/01/29 04:27:48;;;;;;;12.47;5.57;;;;;;;2.58;70.09;100609.84;126351;1097;104272;-78
2022/01/29 04:30:28;;;;;;;12.33;4.53;;;;;;;2.58;69.98;100602.07;126269;1098;104152;-79
2022/01/29 04:33:14;;;;;;;10.03;4.70;;;;;;;2.58;70.19;100612.43;126216;1099;104153;-80
2022/01/29 04:35:46;;;;;;;8.07;3.97;;;;;;;2.58;70.29;100612.43;126226;1098;104204;-80
2022/01/29 04:38:18;;;;;;;8.80;4.30;;;;;;;2.58;70.18;100615.02;126301;1099;104174;-78
2022/01/29 04:40:51;;;;;;;8.83;3.80;;;;;;;2.57;70.12;100621.91;126143;1099;102124;-78
2022/01/29 04:43:24;;;;;;;6.37;3.50;;;;;;;2.58;70.43;100625.38;126291;1099;104226;-77
2022/01/29 04:45:57;;;;;;;6.83;3.60;;;;;;;2.55;70.35;100633.83;126215;1099;104256;-78
2022/01/29 04:48:30;;;;;;;6.03;3.67;;;;;;;2.55;70.13;100641.60;126324;1097;104172;-78
2022/01/29 04:51:02;;;;;;;7.60;3.63;;;;;;;2.54;70.26;100636.31;126305;1099;104172;-78
2022/01/29 04:53:36;;;;;;;7.47;3.90;;;;;;;2.54;70.31;100646.67;126275;1099;104345;-78
2022/01/29 04:56:08;;;;;;;6.47;3.67;;;;;;;2.50;70.03;100636.10;126342;1099;104301;-79
2022/01/29 04:58:40;;;;;;;10.07;4.13;;;;;;;2.47;70.40;100646.24;126271;1099;104297;-78
2022/01/29 05:01:11;;;;;;;9.37;4.00;;;;;;;2.47;70.65;100655.72;126085;1099;104286;-79
2022/01/29 05:03:43;;;;;;;7.47;3.37;;;;;;;2.46;70.59;100657.42;125974;1099;104418;-80
2022/01/29 05:06:14;;;;;;;7.07;3.00;;;;;;;2.42;70.23;100667.45;126000;1099;104174;-79
2022/01/29 05:08:45;;;;;;;7.47;3.47;;;;;;;2.42;69.90;100657.98;126018;1099;104293;-79
2022/01/29 05:11:17;;;;;;;6.27;3.10;;;;;;;2.40;70.24;100651.80;125915;1099;104277;-79
2022/01/29 05:13:49;;;;;;;4.10;2.70;;;;;;;2.39;70.03;100660.36;125988;1099;104277;-79
2022/01/29 05:16:42;;;;;;;6.00;3.30;;;;;;;2.39;70.12;100672.41;126021;1099;104146;-78
2022/01/29 05:27:56;;;;;;;7.20;3.50;;;;;;;2.30;70.14;100672.64;125196;1102;104341;-78
2022/01/29 05:30:28;;;;;;;7.30;3.67;;;;;;;2.27;70.83;100667.25;125765;1099;104389;-79
2022/01/29 05:32:59;;;;;;;6.87;3.10;;;;;;;2.25;70.25;100661.07;126057;1099;104182;-78
2022/01/29 05:35:31;;;;;;;8.50;3.50;;;;;;;2.24;70.26;100682.56;126262;1099;104250;-78
2022/01/29 05:38:02;;;;;;;8.23;3.83;;;;;;;2.23;70.14;100688.52;126317;1099;104120;-78
2022/01/29 05:40:34;;;;;;;6.77;3.50;;;;;;;2.23;70.52;100672.98;126338;1099;104156;-78
2022/01/29 05:43:05;;;;;;;7.30;3.20;;;;;;;2.24;70.02;100685.16;126290;1099;104159;-78
2022/01/29 05:45:37;;;;;;;6.10;3.50;;;;;;;2.22;70.29;100695.40;126334;1099;104740;-79
2022/01/29 05:48:08;;;;;;;10.30;4.37;;;;;;;2.22;69.47;100692.81;126368;1099;104920;-78
2022/01/29 05:50:40;;;;;;;7.10;4.17;;;;;;;2.21;69.56;100703.05;126363;1099;104149;-79
2022/01/29 05:53:11;;;;;;;5.10;2.87;;;;;;;2.19;69.18;100715.89;126267;1099;104165;-79
2022/01/29 05:55:43;;;;;;;6.03;2.83;;;;;;;2.16;69.67;100721.73;126296;1099;104293;-79
2022/01/29 05:58:14;;;;;;;4.73;2.80;;;;;;;2.14;69.17;100720.73;126292;1098;104252;-79
2022/01/29 06:00:46;;;;;;;4.50;2.40;;;;;;;2.12;69.16;100709.38;126351;1099;104219;-79
2022/01/29 06:03:17;;;;;;;3.53;2.50;;;;;;;2.12;69.70;100731.76;126169;1099;104281;-79
2022/01/29 06:05:48;;;;;;;2.70;2.10;;;;;;;2.12;69.39;100724.91;126220;1099;104137;-78
2022/01/29 06:08:20;;;;;;;3.43;2.10;;;;;;;2.12;68.73;100731.76;126328;1099;104326;-79
2022/01/29 06:10:51;;;;;;;3.75;2.05;;;;;;;2.12;68.81;100729.17;126133;1098;104399;-78
2022/01/29 06:13:23;;;;;;;3.90;1.90;;;;;;;2.14;68.96;100738.86;126294;1099;104169;-79
2022/01/29 06:15:55;;;;;;;2.93;1.80;;;;;;;2.17;68.79;100740.78;126360;1099;104242;-79
2022/01/29 06:18:27;;;;;;;3.07;1.90;;;;;;;2.21;68.67;100745.37;126348;1098;104153;-78
2022/01/29 06:21:04;;;;;;;2.37;1.87;;;;;;;2.26;68.68;100753.48;126316;1099;104188;-78
2022/01/29 06:23:37;;;;;;;3.87;2.10;;;;;;;2.29;69.39;100738.16;126280;1099;104143;-79
2022/01/29 06:26:11;;;;;;;2.53;1.90;;;;;;;2.33;68.36;100761.80;126324;1099;104255;-78
2022/01/29 06:28:45;;;;;;;4.03;2.57;;;;;;;2.39;68.82;100750.11;126312;1099;104175;-78
2022/01/29 06:31:17;;;;;;;2.63;2.10;;;;;;;2.42;68.52;100763.28;126360;1099;104175;-77
2022/01/29 06:33:49;;;;;;;3.87;2.23;;;;;;;2.44;68.22;100764.28;126280;1099;104306;-78
2022/01/29 06:36:20;;;;;;;4.97;2.50;;;;;;;2.45;67.94;100759.22;126278;1099;104319;-78
2022/01/29 06:38:51;;;;;;;5.60;2.50;;;;;;;2.43;68.96;100752.11;126315;1098;104143;-78
2022/01/29 06:41:22;;;;;;;5.27;2.40;;;;;;;2.39;68.14;100763.95;126294;1099;104197;-78
2022/01/29 06:43:54;;;;;;;4.80;2.50;;;;;;;2.44;68.35;100759.11;126275;1099;104249;-78
2022/01/29 06:46:25;;;;;;;4.67;2.67;;;;;;;2.50;68.46;100788.05;126357;1099;104150;-78
2022/01/29 06:48:56;;;;;;;5.70;2.90;;;;;;;2.54;68.01;100789.16;126279;1099;104312;-78
2022/01/29 06:51:28;;;;;;;8.17;2.90;;;;;;;2.59;68.02;100788.71;126295;1099;104178;-79
2022/01/29 06:53:59;;;;;;;5.63;2.80;;;;;;;2.68;68.60;100775.50;126247;1099;104994;-78
2022/01/29 06:56:30;;;;;;;5.67;3.20;;;;;;;2.76;68.47;100776.05;126344;1099;104120;-78
2022/01/29 06:59:02;;;;;;;6.47;2.77;;;;;;;2.80;68.18;100786.73;126348;1099;104396;-78
2022/01/29 07:01:33;;;;;;;5.17;2.90;;;;;;;2.80;67.77;100799.70;126293;1099;104159;-79
2022/01/29 07:04:05;;;;;;;5.70;2.80;;;;;;;2.85;67.53;100781.88;126289;1099;104165;-77
2022/01/29 07:06:36;;;;;;;9.63;3.10;;;;;;;2.88;67.71;100789.87;126322;1099;104152;-78
2022/01/29 07:09:08;;;;;;;6.70;3.30;;;;;;;2.91;67.48;100790.09;126314;1099;104220;-78
2022/01/29 07:11:41;;;;;;;6.90;3.10;;;;;;;2.95;67.81;100788.64;126247;1099;104351;-77
2022/01/29 07:14:16;;;;;;;5.50;3.20;;;;;;;2.98;67.77;100775.90;126246;1099;104843;-78
2022/01/29 07:16:48;;;;;;;6.93;2.67;;;;;;;3.01;67.31;100786.48;126338;1099;104245;-78
2022/01/29 07:19:19;;;;;;;7.13;3.20;;;;;;;3.04;67.05;100787.59;126342;1099;104175;-78
2022/01/29 07:21:51;;;;;;;6.73;3.07;;;;;;;3.09;66.74;100798.29;126255;1099;104245;-78
2022/01/29 07:24:22;;;;;;;5.70;3.17;;;;;;;3.11;66.87;100795.80;126311;1099;104175;-78
2022/01/29 07:26:53;;;;;;;3.63;2.70;;;;;;;3.12;66.48;100801.09;126281;1099;104147;-79
2022/01/29 07:29:25;;;;;;;5.13;2.80;;;;;;;3.05;66.77;100815.33;126337;1098;104187;-79
2022/01/29 07:31:57;;;;;;;8.47;3.13;;;;;;;3.01;66.53;100802.05;126281;1099;104193;-79
2022/01/29 07:34:29;;;;;;;5.80;2.80;;;;;;;2.98;67.14;100801.83;126330;1098;104258;-78
2022/01/29 07:37:01;;;;;;;5.37;3.03;;;;;;;2.98;66.67;100794.05;126331;1099;104579;-78
2022/01/29 07:39:32;;;;;;;8.47;3.00;;;;;;;3.00;66.85;100800.23;126297;1099;104290;-78
2022/01/29 07:42:05;;;;;;;3.77;2.40;;;;;;;3.00;67.04;100801.12;126321;1099;104201;-78
2022/01/29 07:44:36;;;;;;;5.80;3.00;;;;;;;3.01;66.83;100800.34;126279;1099;104592;-78
2022/01/29 07:47:09;;;;;;;4.93;2.97;;;;;;;3.02;65.99;100796.97;126352;1099;104156;-78
2022/01/29 07:49:40;;;;;;;6.77;2.90;;;;;;;3.07;66.36;100799.88;126347;1099;104296;-79
2022/01/29 07:52:12;;;;;;;4.77;2.57;;;;;;;3.08;66.20;100808.55;126265;1099;104256;-78
2022/01/29 07:54:43;;;;;;;7.50;3.20;;;;;;;3.14;66.61;100811.58;126203;1099;104175;-79
2022/01/29 07:57:15;;;;;;;9.57;3.23;;;;;;;3.17;66.34;100799.72;126192;1099;104197;-79
2022/01/29 07:59:46;;;;;;;6.90;2.80;;;;;;;3.13;64.88;100813.28;126252;1099;104171;-78
2022/01/29 08:02:18;;;;;;;5.80;2.57;;;;;;;3.12;65.30;100811.47;126206;1099;101954;-80
2022/01/29 08:04:49;;;;;;;4.73;2.13;;;;;;;3.13;65.31;100805.50;126170;1099;104437;-79
2022/01/29 08:07:21;;;;;;;6.17;2.30;;;;;;;3.14;65.09;100814.17;126236;1099;105347;-79
2022/01/29 08:09:52;;;;;;;6.63;2.70;;;;;;;3.17;65.55;100811.80;126336;1098;104143;-78
2022/01/29 08:12:23;;;;;;;9.10;2.83;;;;;;;3.22;65.17;100820.78;126326;1099;104281;-78
2022/01/29 08:14:54;;;;;;;4.93;2.60;;;;;;;3.23;64.90;100823.48;126284;1099;104149;-78
2022/01/29 08:17:26;;;;;;;5.67;2.67;;;;;;;3.26;64.60;100829.67;126325;1099;104153;-78
2022/01/29 08:19:58;;;;;;;6.33;2.50;;;;;;;3.26;64.40;100819.30;126293;1099;104130;-78
2022/01/29 08:22:29;;;;;;;6.23;2.60;;;;;;;3.30;64.27;100836.89;126325;1099;104147;-79
2022/01/29 08:25:02;;;;;;;6.80;2.70;;;;;;;3.29;64.38;100845.45;126282;1099;104280;-78
2022/01/29 08:27:33;;;;;;;5.97;2.10;;;;;;;3.31;62.53;100841.30;126346;1099;104146;-79
2022/01/29 08:30:06;;;;;;;4.47;1.90;;;;;;;3.28;62.86;100841.08;126314;1099;104255;-79
2022/01/29 08:32:41;;;;;;;7.20;2.20;;;;;;;3.32;63.64;100853.45;126370;1099;104184;-79
2022/01/29 08:35:15;;;;;;;7.97;2.50;;;;;;;3.36;63.60;100866.73;126263;1099;104246;-78
2022/01/29 08:37:45;;;;;;;;;;;;;;;3.36;61.30;100871.93;126409;1098;104240;-79
2022/01/29 08:40:17;;;;;;;8.27;2.40;;;;;;;3.39;62.13;100876.45;126339;1099;104348;-79
2022/01/29 08:42:49;;;;;;;8.87;2.20;;;;;;;3.38;61.72;100879.81;126297;1099;104335;-78
2022/01/29 08:45:21;;;;;;;4.27;1.77;;;;;;;3.35;60.16;100889.98;126229;1099;104152;-78
2022/01/29 08:47:52;;;;;;;5.33;2.40;;;;;;;3.36;60.87;100889.20;126281;1099;104184;-78
2022/01/29 08:50:23;;;;;;;6.47;2.00;;;;;;;3.36;60.32;100884.02;126338;1099;104156;-79
2022/01/29 08:52:55;;;;;;;5.70;1.97;;;;;;;3.39;60.83;100892.01;126255;1099;104226;-78
2022/01/29 08:55:26;;;;;;;5.20;2.00;;;;;;;3.35;59.73;100885.71;126251;1099;104252;-78
2022/01/29 08:57:58;;;;;;;6.17;2.30;;;;;;;3.35;59.39;100902.95;126355;1099;104159;-79
2022/01/29 09:00:29;;;;;;;7.47;2.30;;;;;;;3.37;59.50;100888.42;126297;1099;104179;-79
2022/01/29 09:03:00;;;;;;;9.03;3.03;;;;;;;3.38;59.21;100908.35;126338;1099;104143;-78
2022/01/29 09:05:32;;;;;;;8.50;2.20;;;;;;;3.45;60.67;100892.44;126251;1099;104261;-78
2022/01/29 09:08:05;;;;;;;8.07;2.80;;;;;;;3.50;60.23;100904.03;126305;1099;104315;-79
2022/01/29 09:10:37;;;;;;;8.63;2.90;;;;;;;3.57;60.00;100918.37;126274;1099;104322;-78
2022/01/29 09:13:08;;;;;;;4.47;2.37;;;;;;;3.56;58.75;100903.58;126275;1099;104267;-78
2022/01/29 09:15:39;;;;;;;8.73;3.13;;;;;;;3.57;58.90;100900.20;126251;1098;104147;-79
2022/01/29 09:18:11;;;;;;;7.77;2.90;;;;;;;3.60;58.52;100909.09;126346;1099;118323;-78
2022/01/29 09:20:42;;;;;;;12.53;2.77;;;;;;;3.65;59.23;100919.80;126301;1099;104160;-79
2022/01/29 09:23:14;;;;;;;7.57;2.27;;;;;;;3.66;58.41;100906.03;126313;1099;104226;-78
2022/01/29 09:25:45;;;;;;;6.33;2.40;;;;;;;3.64;56.22;100919.69;126307;1097;104147;-77
2022/01/29 09:28:17;;;;;;;7.13;2.50;;;;;;;3.59;56.39;100911.58;126282;1099;104175;-78
2022/01/29 09:30:50;;;;;;;5.83;2.17;;;;;;;3.59;56.53;100917.66;126337;1099;104370;-78
2022/01/29 09:33:21;;;;;;;6.93;1.97;;;;;;;3.54;52.95;100919.04;126316;1099;104249;-78
2022/01/29 09:35:53;;;;;;;3.20;1.93;;;;;;;3.51;55.26;100913.63;126359;1099;104224;-79
2022/01/29 09:38:24;;;;;;;5.57;2.13;;;;;;;3.48;54.06;100923.80;126274;1099;104227;-77
2022/01/29 09:40:57;;;;;;;6.60;2.10;;;;;;;3.42;52.65;100947.59;126340;1099;104162;-78
2022/01/29 09:43:30;;;;;;;6.15;1.40;;;;;;;3.38;52.70;100936.89;126332;1099;104182;-78
2022/01/29 09:46:02;;;;;;;4.10;1.67;;;;;;;3.28;52.71;100943.13;126314;1099;104403;-78
2022/01/29 09:48:33;;;;;;;5.00;2.00;;;;;;;3.24;53.29;100929.05;126254;1099;104146;-78
2022/01/29 09:51:08;;;;;;;3.90;1.60;;;;;;;3.20;53.38;100939.98;126315;1099;104252;-78
2022/01/29 09:53:39;;;;;;;6.17;1.90;;;;;;;3.13;52.73;100927.38;126357;1099;104174;-78
2022/01/29 09:56:11;;;;;;;8.13;1.80;;;;;;;3.09;52.38;100940.90;126318;1099;104178;-78
2022/01/29 09:58:44;;;;;;;10.77;1.90;;;;;;;3.08;53.40;100936.49;126268;1099;104232;-78
2022/01/29 10:01:15;;;;;;;7.07;2.00;;;;;;;3.13;52.80;100942.02;126323;1099;104176;-79
2022/01/29 10:04:01;;;;;;;5.67;1.70;;;;;;;3.27;52.95;100935.23;126284;1098;104178;-78
2022/01/29 10:06:32;;;;;;;4.83;2.07;;;;;;;3.38;53.55;100923.92;126349;1099;104150;-79
2022/01/29 10:09:09;;;;;;;7.83;2.43;;;;;;;3.41;53.00;100921.55;126286;1099;104175;-79
2022/01/29 10:11:41;;;;;;;5.23;2.03;;;;;;;3.40;52.38;100906.80;126300;1097;104264;-79
2022/01/29 10:14:13;;;;;;;6.10;2.10;;;;;;;3.38;52.10;100918.73;126307;1099;104219;-79
2022/01/29 10:16:45;;;;;;;3.33;1.70;;;;;;;3.45;52.06;100925.28;126326;1099;104177;-79
2022/01/29 10:19:16;;;;;;;6.33;2.50;;;;;;;3.45;52.21;100926.17;126288;1099;104625;-78
2022/01/29 10:21:49;;;;;;;6.00;1.83;;;;;;;3.47;52.76;100918.50;126356;1099;104258;-79
2022/01/29 10:24:21;;;;;;;5.33;1.60;;;;;;;3.46;52.15;100921.87;126292;1099;104646;-79
2022/01/29 10:26:54;;;;;;;3.90;2.47;;;;;;;3.51;51.91;100925.72;126285;1098;104229;-78
2022/01/29 10:29:27;;;;;;;3.57;2.00;;;;;;;3.55;52.43;100928.64;126219;1099;104325;-78
2022/01/29 10:32:02;;;;;;;6.67;1.90;;;;;;;3.68;52.31;100942.48;126372;1099;104162;-78
2022/01/29 10:34:35;;;;;;;6.50;2.50;;;;;;;3.70;52.50;100935.69;126312;1099;104181;-78
2022/01/29 10:37:18;;;;;;;5.65;1.98;;;;;;;3.66;51.80;100926.80;126327;1099;104185;-78
2022/01/29 10:39:52;;;;;;;2.63;1.60;;;;;;;3.63;50.74;100939.56;126250;1099;104149;-78
2022/01/29 10:42:26;;;;;;;3.60;1.70;;;;;;;3.56;51.15;100953.77;126274;1099;104194;-77
2022/01/29 10:45:02;;;;;;;6.45;2.22;;;;;;;3.50;51.51;100939.47;126118;1099;104191;-78
2022/01/29 10:47:52;;;;;;;3.60;1.80;;;;;;;3.42;50.86;100944.11;126129;1099;104256;-78
2022/01/29 10:50:24;;;;;;;5.47;1.83;;;;;;;3.38;50.77;100943.00;126092;1099;108949;-78
2022/01/29 10:52:56;;;;;;;3.60;2.20;;;;;;;3.32;52.03;100934.78;126165;1099;104175;-77
2022/01/29 10:55:28;;;;;;;6.37;1.87;;;;;;;3.32;51.14;100939.97;126080;1099;104220;-78
2022/01/29 10:57:59;;;;;;;5.00;2.00;;;;;;;3.29;49.96;100928.45;126191;1099;104249;-77
2022/01/29 11:00:31;;;;;;;7.90;2.33;;;;;;;3.27;50.38;100951.69;126124;1099;104143;-78
2022/01/29 11:03:02;;;;;;;8.20;1.73;;;;;;;3.20;50.28;100942.57;126113;1099;104184;-77
2022/01/29 11:05:36;;;;;;;4.47;1.77;;;;;;;3.19;51.05;100948.53;126147;1099;104246;-78
2022/01/29 11:08:08;;;;;;;4.00;1.70;;;;;;;3.16;50.31;100942.23;126161;1099;104201;-77
2022/01/29 11:10:39;;;;;;;10.23;2.50;;;;;;;3.26;51.73;100941.20;126103;1099;104274;-77
2022/01/29 11:13:13;;;;;;;8.90;2.40;;;;;;;3.31;51.70;100945.05;126318;1099;104204;-78
2022/01/29 11:15:45;;;;;;;5.65;1.98;;;;;;;3.35;51.51;100942.78;126316;1099;104251;-78
2022/01/29 11:18:16;;;;;;;10.70;2.30;;;;;;;3.35;50.81;100949.64;126370;1099;104251;-78
2022/01/29 11:20:48;;;;;;;5.97;2.20;;;;;;;3.32;51.05;100949.42;126272;1099;104172;-78
2022/01/29 11:23:20;;;;;;;6.13;2.20;;;;;;;3.35;51.75;100944.45;126354;1099;104217;-79
2022/01/29 11:25:56;;;;;;;8.87;2.30;;;;;;;3.40;52.23;100949.19;126265;1099;104245;-78
2022/01/29 11:28:29;;;;;;;9.33;2.30;;;;;;;3.48;52.36;100944.55;126334;1099;104281;-78
2022/01/29 11:31:21;;;;;;;6.07;2.13;;;;;;;3.51;53.03;100942.17;126235;1099;104146;-78
2022/01/29 11:34:24;;;;;;;6.27;2.43;;;;;;;3.55;52.29;100938.09;126332;1099;104153;-78
2022/01/29 11:37:10;;;;;;;7.93;2.00;;;;;;;3.50;51.59;100942.95;126323;1099;104179;-79
2022/01/29 11:39:42;;;;;;;5.55;2.02;;;;;;;3.49;52.68;100938.58;126276;1099;104185;-79
2022/01/29 11:42:33;;;;;;;9.57;2.77;;;;;;;3.55;52.25;100951.06;126331;1099;104251;-78
2022/01/29 11:45:42;;;;;;;8.57;2.73;;;;;;;3.63;52.72;100942.16;126338;1099;104251;-78
2022/01/29 11:48:50;;;;;;;6.33;2.33;;;;;;;3.67;51.92;100932.88;126316;1099;104346;-78
2022/01/29 11:51:54;;;;;;;8.83;2.50;;;;;;;3.71;52.12;100940.06;126268;1099;104172;-78